sensor_id;sensor_type;location;lat;lon;timestamp;pressure;altitude;pressure_sealevel;temperature
54746;BMP180;40640;48.130;11.356;2023-04-24T00:00:03;94741.00;;;12.50
54746;BMP180;40640;48.130;11.356;2023-04-24T00:04:08;94736.00;;;12.50
54746;BMP180;40640;48.130;11.356;2023-04-24T00:08:12;94734.00;;;12.50
54746;BMP180;40640;48.130;11.356;2023-04-24T00:12:16;94734.00;;;12.40
54746;BMP180;40640;48.130;11.356;2023-04-24T00:16:19;94743.00;;;12.40
54746;BMP180;40640;48.130;11.356;2023-04-24T00:20:22;94736.00;;;12.30
54746;BMP180;40640;48.130;11.356;2023-04-24T00:24:25;94734.00;;;12.50
54746;BMP180;40640;48.130;11.356;2023-04-24T00:28:29;94738.00;;;12.50
54746;BMP180;40640;48.130;11.356;2023-04-24T00:32:32;94730.00;;;12.50
54746;BMP180;40640;48.130;11.356;2023-04-24T00:36:34;94735.00;;;12.40
54746;BMP180;40640;48.130;11.356;2023-04-24T00:40:37;94733.00;;;12.50
54746;BMP180;40640;48.130;11.356;2023-04-24T00:44:41;94734.00;;;12.40
54746;BMP180;40640;48.130;11.356;2023-04-24T00:48:44;94730.00;;;12.20
54746;BMP180;40640;48.130;11.356;2023-04-24T00:52:47;94733.00;;;12.40
54746;BMP180;40640;48.130;11.356;2023-04-24T00:56:50;94731.00;;;12.20
54746;BMP180;40640;48.130;11.356;2023-04-24T01:00:56;94731.00;;;12.40
54746;BMP180;40640;48.130;11.356;2023-04-24T01:04:59;94726.00;;;12.40
54746;BMP180;40640;48.130;11.356;2023-04-24T01:09:02;94718.00;;;12.10
54746;BMP180;40640;48.130;11.356;2023-04-24T01:13:05;94719.00;;;12.30
54746;BMP180;40640;48.130;11.356;2023-04-24T01:17:09;94711.00;;;12.20
54746;BMP180;40640;48.130;11.356;2023-04-24T01:21:13;94710.00;;;12.20
54746;BMP180;40640;48.130;11.356;2023-04-24T01:25:17;94706.00;;;12.20
54746;BMP180;40640;48.130;11.356;2023-04-24T01:29:21;94706.00;;;12.00
54746;BMP180;40640;48.130;11.356;2023-04-24T01:33:24;94701.00;;;12.20
54746;BMP180;40640;48.130;11.356;2023-04-24T01:37:26;94701.00;;;12.00
54746;BMP180;40640;48.130;11.356;2023-04-24T01:41:32;94701.00;;;12.00
54746;BMP180;40640;48.130;11.356;2023-04-24T01:45:35;94692.00;;;12.00
54746;BMP180;40640;48.130;11.356;2023-04-24T01:49:38;94699.00;;;11.90
54746;BMP180;40640;48.130;11.356;2023-04-24T01:53:42;94701.00;;;12.00
54746;BMP180;40640;48.130;11.356;2023-04-24T01:57:46;94704.00;;;12.00
54746;BMP180;40640;48.130;11.356;2023-04-24T02:01:49;94704.00;;;11.90
54746;BMP180;40640;48.130;11.356;2023-04-24T02:05:53;94700.00;;;12.00
54746;BMP180;40640;48.130;11.356;2023-04-24T02:09:58;94710.00;;;11.80
54746;BMP180;40640;48.130;11.356;2023-04-24T02:14:03;94700.00;;;11.70
54746;BMP180;40640;48.130;11.356;2023-04-24T02:18:05;94704.00;;;11.70
54746;BMP180;40640;48.130;11.356;2023-04-24T02:22:08;94703.00;;;11.70
54746;BMP180;40640;48.130;11.356;2023-04-24T02:26:12;94701.00;;;11.80
54746;BMP180;40640;48.130;11.356;2023-04-24T02:30:16;94699.00;;;11.80
54746;BMP180;40640;48.130;11.356;2023-04-24T02:34:19;94693.00;;;11.70
54746;BMP180;40640;48.130;11.356;2023-04-24T02:38:22;94702.00;;;11.50
54746;BMP180;40640;48.130;11.356;2023-04-24T02:42:25;94699.00;;;11.50
54746;BMP180;40640;48.130;11.356;2023-04-24T02:46:36;94695.00;;;11.60
54746;BMP180;40640;48.130;11.356;2023-04-24T02:50:39;94704.00;;;11.60
54746;BMP180;40640;48.130;11.356;2023-04-24T02:54:42;94704.00;;;11.60
54746;BMP180;40640;48.130;11.356;2023-04-24T02:58:45;94718.00;;;11.50
54746;BMP180;40640;48.130;11.356;2023-04-24T03:02:49;94700.00;;;11.50
54746;BMP180;40640;48.130;11.356;2023-04-24T03:06:52;94702.00;;;11.60
54746;BMP180;40640;48.130;11.356;2023-04-24T03:10:56;94708.00;;;11.60
54746;BMP180;40640;48.130;11.356;2023-04-24T03:14:59;94706.00;;;11.40
54746;BMP180;40640;48.130;11.356;2023-04-24T03:19:03;94689.00;;;11.50
54746;BMP180;40640;48.130;11.356;2023-04-24T03:23:11;94707.00;;;11.60
54746;BMP180;40640;48.130;11.356;2023-04-24T03:27:14;94683.00;;;11.20
54746;BMP180;40640;48.130;11.356;2023-04-24T03:31:38;94690.00;;;11.30
54746;BMP180;40640;48.130;11.356;2023-04-24T03:35:42;94697.00;;;11.30
54746;BMP180;40640;48.130;11.356;2023-04-24T03:39:46;94691.00;;;11.30
54746;BMP180;40640;48.130;11.356;2023-04-24T03:43:53;94697.00;;;11.30
54746;BMP180;40640;48.130;11.356;2023-04-24T03:47:55;94696.00;;;11.20
54746;BMP180;40640;48.130;11.356;2023-04-24T03:52:00;94692.00;;;11.10
54746;BMP180;40640;48.130;11.356;2023-04-24T03:56:04;94689.00;;;11.00
54746;BMP180;40640;48.130;11.356;2023-04-24T04:00:09;94684.00;;;11.00
54746;BMP180;40640;48.130;11.356;2023-04-24T04:04:19;94693.00;;;11.00
54746;BMP180;40640;48.130;11.356;2023-04-24T04:08:24;94680.00;;;11.00
54746;BMP180;40640;48.130;11.356;2023-04-24T04:12:27;94682.00;;;11.00
54746;BMP180;40640;48.130;11.356;2023-04-24T04:16:30;94682.00;;;10.90
54746;BMP180;40640;48.130;11.356;2023-04-24T04:20:36;94691.00;;;11.00
54746;BMP180;40640;48.130;11.356;2023-04-24T04:24:40;94690.00;;;11.00
54746;BMP180;40640;48.130;11.356;2023-04-24T04:28:44;94682.00;;;10.80
54746;BMP180;40640;48.130;11.356;2023-04-24T04:32:49;94688.00;;;10.90
54746;BMP180;40640;48.130;11.356;2023-04-24T04:36:53;94696.00;;;11.00
54746;BMP180;40640;48.130;11.356;2023-04-24T04:41:07;94697.00;;;10.90
54746;BMP180;40640;48.130;11.356;2023-04-24T04:45:10;94707.00;;;11.00
54746;BMP180;40640;48.130;11.356;2023-04-24T04:49:33;94708.00;;;11.00
54746;BMP180;40640;48.130;11.356;2023-04-24T04:53:38;94713.00;;;11.00
54746;BMP180;40640;48.130;11.356;2023-04-24T04:57:43;94714.00;;;11.10
54746;BMP180;40640;48.130;11.356;2023-04-24T05:01:46;94714.00;;;11.00
54746;BMP180;40640;48.130;11.356;2023-04-24T05:05:51;94716.00;;;11.00
54746;BMP180;40640;48.130;11.356;2023-04-24T05:09:54;94720.00;;;11.00
54746;BMP180;40640;48.130;11.356;2023-04-24T05:13:58;94733.00;;;11.00
54746;BMP180;40640;48.130;11.356;2023-04-24T05:18:11;94723.00;;;11.10
54746;BMP180;40640;48.130;11.356;2023-04-24T05:22:14;94727.00;;;11.30
54746;BMP180;40640;48.130;11.356;2023-04-24T05:26:23;94722.00;;;11.30
54746;BMP180;40640;48.130;11.356;2023-04-24T05:30:27;94723.00;;;11.20
54746;BMP180;40640;48.130;11.356;2023-04-24T05:34:31;94736.00;;;11.20
54746;BMP180;40640;48.130;11.356;2023-04-24T05:38:34;94728.00;;;11.30
54746;BMP180;40640;48.130;11.356;2023-04-24T05:42:37;94734.00;;;11.20
54746;BMP180;40640;48.130;11.356;2023-04-24T05:46:41;94740.00;;;11.30
54746;BMP180;40640;48.130;11.356;2023-04-24T05:50:45;94741.00;;;11.30
54746;BMP180;40640;48.130;11.356;2023-04-24T05:54:49;94738.00;;;11.40
54746;BMP180;40640;48.130;11.356;2023-04-24T05:58:56;94741.00;;;11.50
54746;BMP180;40640;48.130;11.356;2023-04-24T06:03:01;94742.00;;;11.70
54746;BMP180;40640;48.130;11.356;2023-04-24T06:07:06;94733.00;;;11.60
54746;BMP180;40640;48.130;11.356;2023-04-24T06:11:09;94742.00;;;11.50
54746;BMP180;40640;48.130;11.356;2023-04-24T06:15:13;94744.00;;;11.60
54746;BMP180;40640;48.130;11.356;2023-04-24T06:19:33;94740.00;;;11.60
54746;BMP180;40640;48.130;11.356;2023-04-24T06:23:36;94750.00;;;11.70
54746;BMP180;40640;48.130;11.356;2023-04-24T06:27:39;94754.00;;;11.70
54746;BMP180;40640;48.130;11.356;2023-04-24T06:31:42;94755.00;;;11.80
54746;BMP180;40640;48.130;11.356;2023-04-24T06:35:46;94761.00;;;11.90
54746;BMP180;40640;48.130;11.356;2023-04-24T06:39:49;94748.00;;;11.90
54746;BMP180;40640;48.130;11.356;2023-04-24T06:43:52;94766.00;;;11.90
54746;BMP180;40640;48.130;11.356;2023-04-24T06:47:55;94759.00;;;12.10
54746;BMP180;40640;48.130;11.356;2023-04-24T06:51:59;94774.00;;;12.20
54746;BMP180;40640;48.130;11.356;2023-04-24T06:56:02;94766.00;;;12.30
54746;BMP180;40640;48.130;11.356;2023-04-24T07:00:06;94774.00;;;12.80
54746;BMP180;40640;48.130;11.356;2023-04-24T07:04:11;94780.00;;;13.20
54746;BMP180;40640;48.130;11.356;2023-04-24T07:08:16;94775.00;;;12.80
54746;BMP180;40640;48.130;11.356;2023-04-24T07:12:19;94780.00;;;12.70
54746;BMP180;40640;48.130;11.356;2023-04-24T07:16:23;94782.00;;;12.60
54746;BMP180;40640;48.130;11.356;2023-04-24T07:20:26;94781.00;;;12.50
54746;BMP180;40640;48.130;11.356;2023-04-24T07:24:30;94795.00;;;12.40
54746;BMP180;40640;48.130;11.356;2023-04-24T07:28:34;94794.00;;;12.40
54746;BMP180;40640;48.130;11.356;2023-04-24T07:32:37;94802.00;;;12.40
54746;BMP180;40640;48.130;11.356;2023-04-24T07:36:40;94801.00;;;12.20
54746;BMP180;40640;48.130;11.356;2023-04-24T07:40:45;94804.00;;;12.30
54746;BMP180;40640;48.130;11.356;2023-04-24T07:44:49;94806.00;;;12.30
54746;BMP180;40640;48.130;11.356;2023-04-24T07:48:52;94803.00;;;12.50
54746;BMP180;40640;48.130;11.356;2023-04-24T07:53:13;94817.00;;;12.50
54746;BMP180;40640;48.130;11.356;2023-04-24T07:57:17;94815.00;;;12.70
54746;BMP180;40640;48.130;11.356;2023-04-24T08:01:20;94816.00;;;13.30
54746;BMP180;40640;48.130;11.356;2023-04-24T08:05:23;94810.00;;;13.50
54746;BMP180;40640;48.130;11.356;2023-04-24T08:09:27;94821.00;;;13.20
54746;BMP180;40640;48.130;11.356;2023-04-24T08:13:31;94826.00;;;12.90
54746;BMP180;40640;48.130;11.356;2023-04-24T08:17:34;94829.00;;;12.70
54746;BMP180;40640;48.130;11.356;2023-04-24T08:21:37;94854.00;;;12.50
54746;BMP180;40640;48.130;11.356;2023-04-24T08:25:40;94851.00;;;12.30
54746;BMP180;40640;48.130;11.356;2023-04-24T08:29:44;94863.00;;;12.30
54746;BMP180;40640;48.130;11.356;2023-04-24T08:33:47;94865.00;;;12.30
54746;BMP180;40640;48.130;11.356;2023-04-24T08:37:51;94871.00;;;12.40
54746;BMP180;40640;48.130;11.356;2023-04-24T08:41:55;94871.00;;;12.30
54746;BMP180;40640;48.130;11.356;2023-04-24T08:46:00;94878.00;;;12.30
54746;BMP180;40640;48.130;11.356;2023-04-24T08:50:04;94884.00;;;12.40
54746;BMP180;40640;48.130;11.356;2023-04-24T08:54:08;94879.00;;;12.60
54746;BMP180;40640;48.130;11.356;2023-04-24T08:58:11;94881.00;;;12.60
54746;BMP180;40640;48.130;11.356;2023-04-24T09:02:16;94888.00;;;12.70
54746;BMP180;40640;48.130;11.356;2023-04-24T09:06:21;94882.00;;;12.60
54746;BMP180;40640;48.130;11.356;2023-04-24T09:10:26;94885.00;;;12.60
54746;BMP180;40640;48.130;11.356;2023-04-24T09:14:32;94882.00;;;12.70
54746;BMP180;40640;48.130;11.356;2023-04-24T09:18:39;94884.00;;;12.80
54746;BMP180;40640;48.130;11.356;2023-04-24T09:22:42;94888.00;;;13.20
54746;BMP180;40640;48.130;11.356;2023-04-24T09:26:45;94889.00;;;13.20
54746;BMP180;40640;48.130;11.356;2023-04-24T09:31:02;94887.00;;;13.60
54746;BMP180;40640;48.130;11.356;2023-04-24T09:35:08;94891.00;;;13.80
54746;BMP180;40640;48.130;11.356;2023-04-24T09:39:13;94888.00;;;14.10
54746;BMP180;40640;48.130;11.356;2023-04-24T09:43:17;94885.00;;;14.20
54746;BMP180;40640;48.130;11.356;2023-04-24T09:47:20;94881.00;;;14.20
54746;BMP180;40640;48.130;11.356;2023-04-24T09:51:34;94880.00;;;14.40
54746;BMP180;40640;48.130;11.356;2023-04-24T09:55:39;94875.00;;;14.70
54746;BMP180;40640;48.130;11.356;2023-04-24T09:59:42;94874.00;;;14.90
54746;BMP180;40640;48.130;11.356;2023-04-24T10:03:46;94874.00;;;14.80
54746;BMP180;40640;48.130;11.356;2023-04-24T10:07:51;94870.00;;;14.70
54746;BMP180;40640;48.130;11.356;2023-04-24T10:11:54;94869.00;;;15.10
54746;BMP180;40640;48.130;11.356;2023-04-24T10:15:59;94859.00;;;15.30
54746;BMP180;40640;48.130;11.356;2023-04-24T10:20:04;94863.00;;;15.10
54746;BMP180;40640;48.130;11.356;2023-04-24T10:24:10;94858.00;;;14.60
54746;BMP180;40640;48.130;11.356;2023-04-24T10:28:14;94872.00;;;14.30
54746;BMP180;40640;48.130;11.356;2023-04-24T10:32:17;94879.00;;;14.20
54746;BMP180;40640;48.130;11.356;2023-04-24T10:36:22;94938.00;;;13.80
54746;BMP180;40640;48.130;11.356;2023-04-24T10:40:32;94942.00;;;13.10
54746;BMP180;40640;48.130;11.356;2023-04-24T10:44:36;94925.00;;;12.70
54746;BMP180;40640;48.130;11.356;2023-04-24T10:48:42;94921.00;;;12.60
54746;BMP180;40640;48.130;11.356;2023-04-24T10:52:47;94905.00;;;13.00
54746;BMP180;40640;48.130;11.356;2023-04-24T10:57:26;94917.00;;;13.90
54746;BMP180;40640;48.130;11.356;2023-04-24T11:01:31;94913.00;;;14.70
54746;BMP180;40640;48.130;11.356;2023-04-24T11:05:56;94916.00;;;15.50
54746;BMP180;40640;48.130;11.356;2023-04-24T11:09:59;94914.00;;;16.10
54746;BMP180;40640;48.130;11.356;2023-04-24T11:14:07;94908.00;;;15.90
54746;BMP180;40640;48.130;11.356;2023-04-24T11:18:14;94908.00;;;16.70
54746;BMP180;40640;48.130;11.356;2023-04-24T11:22:17;94907.00;;;16.70
54746;BMP180;40640;48.130;11.356;2023-04-24T11:26:22;94908.00;;;16.80
54746;BMP180;40640;48.130;11.356;2023-04-24T11:30:33;94920.00;;;16.90
54746;BMP180;40640;48.130;11.356;2023-04-24T11:34:38;94919.00;;;16.50
54746;BMP180;40640;48.130;11.356;2023-04-24T11:38:41;94911.00;;;15.90
54746;BMP180;40640;48.130;11.356;2023-04-24T11:42:45;94919.00;;;16.30
54746;BMP180;40640;48.130;11.356;2023-04-24T11:46:50;94920.00;;;16.70
54746;BMP180;40640;48.130;11.356;2023-04-24T11:50:53;94917.00;;;19.20
54746;BMP180;40640;48.130;11.356;2023-04-24T11:54:56;94927.00;;;20.40
54746;BMP180;40640;48.130;11.356;2023-04-24T11:58:59;94920.00;;;18.50
54746;BMP180;40640;48.130;11.356;2023-04-24T12:03:07;94916.00;;;18.00
54746;BMP180;40640;48.130;11.356;2023-04-24T12:07:11;94919.00;;;17.80
54746;BMP180;40640;48.130;11.356;2023-04-24T12:11:15;94909.00;;;17.90
54746;BMP180;40640;48.130;11.356;2023-04-24T12:15:20;94907.00;;;20.10
54746;BMP180;40640;48.130;11.356;2023-04-24T12:19:24;94889.00;;;21.70
54746;BMP180;40640;48.130;11.356;2023-04-24T12:23:33;94900.00;;;21.70
54746;BMP180;40640;48.130;11.356;2023-04-24T12:27:37;94904.00;;;20.90
54746;BMP180;40640;48.130;11.356;2023-04-24T12:31:40;94883.00;;;21.10
54746;BMP180;40640;48.130;11.356;2023-04-24T12:35:45;94909.00;;;19.40
54746;BMP180;40640;48.130;11.356;2023-04-24T12:39:58;94908.00;;;18.60
54746;BMP180;40640;48.130;11.356;2023-04-24T12:44:02;94903.00;;;19.40
54746;BMP180;40640;48.130;11.356;2023-04-24T12:48:05;94908.00;;;18.70
54746;BMP180;40640;48.130;11.356;2023-04-24T12:52:09;94905.00;;;20.00
54746;BMP180;40640;48.130;11.356;2023-04-24T12:56:12;94908.00;;;20.30
54746;BMP180;40640;48.130;11.356;2023-04-24T13:00:15;94918.00;;;19.40
54746;BMP180;40640;48.130;11.356;2023-04-24T13:04:20;94920.00;;;18.70
54746;BMP180;40640;48.130;11.356;2023-04-24T13:08:25;94916.00;;;17.90
54746;BMP180;40640;48.130;11.356;2023-04-24T13:12:28;94923.00;;;17.60
54746;BMP180;40640;48.130;11.356;2023-04-24T13:16:31;94940.00;;;18.30
54746;BMP180;40640;48.130;11.356;2023-04-24T13:20:34;94939.00;;;19.00
54746;BMP180;40640;48.130;11.356;2023-04-24T13:24:39;94929.00;;;18.70
54746;BMP180;40640;48.130;11.356;2023-04-24T13:28:43;94928.00;;;17.70
54746;BMP180;40640;48.130;11.356;2023-04-24T13:32:46;94931.00;;;17.20
54746;BMP180;40640;48.130;11.356;2023-04-24T13:36:49;94928.00;;;17.40
54746;BMP180;40640;48.130;11.356;2023-04-24T13:40:55;94925.00;;;17.00
54746;BMP180;40640;48.130;11.356;2023-04-24T13:44:58;94915.00;;;16.70
54746;BMP180;40640;48.130;11.356;2023-04-24T13:49:06;94928.00;;;16.60
54746;BMP180;40640;48.130;11.356;2023-04-24T13:53:09;94916.00;;;17.70
54746;BMP180;40640;48.130;11.356;2023-04-24T13:57:14;94937.00;;;17.50
54746;BMP180;40640;48.130;11.356;2023-04-24T14:01:17;94933.00;;;17.20
54746;BMP180;40640;48.130;11.356;2023-04-24T14:05:20;94938.00;;;17.90
54746;BMP180;40640;48.130;11.356;2023-04-24T14:09:23;94949.00;;;17.70
54746;BMP180;40640;48.130;11.356;2023-04-24T14:13:27;94931.00;;;17.60
54746;BMP180;40640;48.130;11.356;2023-04-24T14:17:30;94941.00;;;17.30
54746;BMP180;40640;48.130;11.356;2023-04-24T14:21:33;94955.00;;;16.90
54746;BMP180;40640;48.130;11.356;2023-04-24T14:25:36;94954.00;;;16.90
54746;BMP180;40640;48.130;11.356;2023-04-24T14:29:40;94955.00;;;16.90
54746;BMP180;40640;48.130;11.356;2023-04-24T14:33:43;94969.00;;;17.00
54746;BMP180;40640;48.130;11.356;2023-04-24T14:37:47;94976.00;;;16.60
54746;BMP180;40640;48.130;11.356;2023-04-24T14:41:51;94969.00;;;16.50
54746;BMP180;40640;48.130;11.356;2023-04-24T14:45:55;94955.00;;;16.70
54746;BMP180;40640;48.130;11.356;2023-04-24T14:49:58;94958.00;;;17.20
54746;BMP180;40640;48.130;11.356;2023-04-24T14:54:01;94960.00;;;17.10
54746;BMP180;40640;48.130;11.356;2023-04-24T14:58:04;94949.00;;;16.80
54746;BMP180;40640;48.130;11.356;2023-04-24T15:02:08;94965.00;;;16.90
54746;BMP180;40640;48.130;11.356;2023-04-24T15:06:18;94952.00;;;16.80
54746;BMP180;40640;48.130;11.356;2023-04-24T15:10:21;94975.00;;;16.70
54746;BMP180;40640;48.130;11.356;2023-04-24T15:14:25;94972.00;;;16.80
54746;BMP180;40640;48.130;11.356;2023-04-24T15:18:29;94981.00;;;16.80
54746;BMP180;40640;48.130;11.356;2023-04-24T15:22:32;94978.00;;;16.90
54746;BMP180;40640;48.130;11.356;2023-04-24T15:26:35;94980.00;;;16.70
54746;BMP180;40640;48.130;11.356;2023-04-24T15:30:38;94988.00;;;16.60
54746;BMP180;40640;48.130;11.356;2023-04-24T15:34:43;94994.00;;;16.60
54746;BMP180;40640;48.130;11.356;2023-04-24T15:38:47;94993.00;;;16.70
54746;BMP180;40640;48.130;11.356;2023-04-24T15:42:50;94994.00;;;16.50
54746;BMP180;40640;48.130;11.356;2023-04-24T15:46:53;94997.00;;;16.20
54746;BMP180;40640;48.130;11.356;2023-04-24T15:50:57;94981.00;;;16.00
54746;BMP180;40640;48.130;11.356;2023-04-24T15:55:02;94993.00;;;16.20
54746;BMP180;40640;48.130;11.356;2023-04-24T15:59:05;94997.00;;;16.10
54746;BMP180;40640;48.130;11.356;2023-04-24T16:03:08;94997.00;;;16.00
54746;BMP180;40640;48.130;11.356;2023-04-24T16:07:13;95002.00;;;15.80
54746;BMP180;40640;48.130;11.356;2023-04-24T16:11:16;94998.00;;;15.70
54746;BMP180;40640;48.130;11.356;2023-04-24T16:15:19;95009.00;;;15.70
54746;BMP180;40640;48.130;11.356;2023-04-24T16:19:22;95002.00;;;15.60
54746;BMP180;40640;48.130;11.356;2023-04-24T16:23:26;95023.00;;;15.30
54746;BMP180;40640;48.130;11.356;2023-04-24T16:27:29;95020.00;;;15.20
54746;BMP180;40640;48.130;11.356;2023-04-24T16:31:32;95016.00;;;15.00
54746;BMP180;40640;48.130;11.356;2023-04-24T16:35:35;95015.00;;;14.90
54746;BMP180;40640;48.130;11.356;2023-04-24T16:39:39;95014.00;;;14.70
54746;BMP180;40640;48.130;11.356;2023-04-24T16:43:45;95018.00;;;14.80
54746;BMP180;40640;48.130;11.356;2023-04-24T16:47:48;95019.00;;;14.70
54746;BMP180;40640;48.130;11.356;2023-04-24T16:51:51;95014.00;;;15.00
54746;BMP180;40640;48.130;11.356;2023-04-24T16:55:55;95024.00;;;15.10
54746;BMP180;40640;48.130;11.356;2023-04-24T16:59:58;95020.00;;;15.00
54746;BMP180;40640;48.130;11.356;2023-04-24T17:04:00;95030.00;;;15.10
54746;BMP180;40640;48.130;11.356;2023-04-24T17:08:04;95026.00;;;15.00
54746;BMP180;40640;48.130;11.356;2023-04-24T17:12:08;95025.00;;;14.80
54746;BMP180;40640;48.130;11.356;2023-04-24T17:16:11;95026.00;;;14.60
54746;BMP180;40640;48.130;11.356;2023-04-24T17:20:14;95035.00;;;14.60
54746;BMP180;40640;48.130;11.356;2023-04-24T17:24:24;95030.00;;;14.50
54746;BMP180;40640;48.130;11.356;2023-04-24T17:28:30;95030.00;;;14.40
54746;BMP180;40640;48.130;11.356;2023-04-24T17:32:33;95040.00;;;14.30
54746;BMP180;40640;48.130;11.356;2023-04-24T17:36:35;95034.00;;;14.20
54746;BMP180;40640;48.130;11.356;2023-04-24T17:40:38;95051.00;;;14.00
54746;BMP180;40640;48.130;11.356;2023-04-24T17:44:43;95050.00;;;13.90
54746;BMP180;40640;48.130;11.356;2023-04-24T17:48:46;95055.00;;;13.70
54746;BMP180;40640;48.130;11.356;2023-04-24T17:52:50;95050.00;;;13.70
54746;BMP180;40640;48.130;11.356;2023-04-24T17:56:53;95057.00;;;13.50
54746;BMP180;40640;48.130;11.356;2023-04-24T18:00:57;95058.00;;;13.30
54746;BMP180;40640;48.130;11.356;2023-04-24T18:05:00;95052.00;;;13.20
54746;BMP180;40640;48.130;11.356;2023-04-24T18:09:03;95060.00;;;13.10
54746;BMP180;40640;48.130;11.356;2023-04-24T18:13:06;95064.00;;;12.90
54746;BMP180;40640;48.130;11.356;2023-04-24T18:17:11;95074.00;;;12.80
54746;BMP180;40640;48.130;11.356;2023-04-24T18:21:14;95071.00;;;12.70
54746;BMP180;40640;48.130;11.356;2023-04-24T18:25:17;95068.00;;;12.90
54746;BMP180;40640;48.130;11.356;2023-04-24T18:29:26;95071.00;;;12.70
54746;BMP180;40640;48.130;11.356;2023-04-24T18:33:31;95077.00;;;12.50
54746;BMP180;40640;48.130;11.356;2023-04-24T18:37:33;95076.00;;;12.50
54746;BMP180;40640;48.130;11.356;2023-04-24T18:41:36;95081.00;;;12.40
54746;BMP180;40640;48.130;11.356;2023-04-24T18:45:39;95083.00;;;12.40
54746;BMP180;40640;48.130;11.356;2023-04-24T18:49:43;95091.00;;;12.30
54746;BMP180;40640;48.130;11.356;2023-04-24T18:53:46;95088.00;;;12.20
54746;BMP180;40640;48.130;11.356;2023-04-24T18:57:49;95094.00;;;12.10
54746;BMP180;40640;48.130;11.356;2023-04-24T19:01:52;95103.00;;;12.20
54746;BMP180;40640;48.130;11.356;2023-04-24T19:05:56;95104.00;;;12.20
54746;BMP180;40640;48.130;11.356;2023-04-24T19:09:59;95104.00;;;12.20
54746;BMP180;40640;48.130;11.356;2023-04-24T19:14:02;95111.00;;;12.10
54746;BMP180;40640;48.130;11.356;2023-04-24T19:18:06;95114.00;;;12.00
54746;BMP180;40640;48.130;11.356;2023-04-24T19:22:11;95118.00;;;12.00
54746;BMP180;40640;48.130;11.356;2023-04-24T19:26:13;95117.00;;;12.30
54746;BMP180;40640;48.130;11.356;2023-04-24T19:30:16;95114.00;;;12.10
54746;BMP180;40640;48.130;11.356;2023-04-24T19:34:19;95118.00;;;12.20
54746;BMP180;40640;48.130;11.356;2023-04-24T19:38:23;95121.00;;;12.10
54746;BMP180;40640;48.130;11.356;2023-04-24T19:42:26;95111.00;;;12.00
54746;BMP180;40640;48.130;11.356;2023-04-24T19:46:45;95110.00;;;12.00
54746;BMP180;40640;48.130;11.356;2023-04-24T19:50:48;95113.00;;;11.80
54746;BMP180;40640;48.130;11.356;2023-04-24T19:54:52;95125.00;;;12.00
54746;BMP180;40640;48.130;11.356;2023-04-24T19:58:55;95120.00;;;12.00
54746;BMP180;40640;48.130;11.356;2023-04-24T20:02:58;95131.00;;;11.80
54746;BMP180;40640;48.130;11.356;2023-04-24T20:07:01;95116.00;;;11.70
54746;BMP180;40640;48.130;11.356;2023-04-24T20:11:05;95113.00;;;11.60
54746;BMP180;40640;48.130;11.356;2023-04-24T20:15:09;95113.00;;;11.40
54746;BMP180;40640;48.130;11.356;2023-04-24T20:19:12;95116.00;;;11.50
54746;BMP180;40640;48.130;11.356;2023-04-24T20:23:15;95116.00;;;11.30
54746;BMP180;40640;48.130;11.356;2023-04-24T20:27:20;95125.00;;;11.10
54746;BMP180;40640;48.130;11.356;2023-04-24T20:31:23;95131.00;;;11.10
54746;BMP180;40640;48.130;11.356;2023-04-24T20:35:26;95118.00;;;11.10
54746;BMP180;40640;48.130;11.356;2023-04-24T20:39:29;95124.00;;;11.10
54746;BMP180;40640;48.130;11.356;2023-04-24T20:43:33;95123.00;;;11.10
54746;BMP180;40640;48.130;11.356;2023-04-24T20:47:36;95113.00;;;10.90
54746;BMP180;40640;48.130;11.356;2023-04-24T20:51:39;95123.00;;;10.90
54746;BMP180;40640;48.130;11.356;2023-04-24T20:55:41;95106.00;;;10.80
54746;BMP180;40640;48.130;11.356;2023-04-24T20:59:46;95103.00;;;10.60
54746;BMP180;40640;48.130;11.356;2023-04-24T21:03:49;95092.00;;;10.50
54746;BMP180;40640;48.130;11.356;2023-04-24T21:07:53;95106.00;;;10.40
54746;BMP180;40640;48.130;11.356;2023-04-24T21:11:57;95110.00;;;10.50
54746;BMP180;40640;48.130;11.356;2023-04-24T21:16:01;95107.00;;;10.40
54746;BMP180;40640;48.130;11.356;2023-04-24T21:20:05;95107.00;;;10.40
54746;BMP180;40640;48.130;11.356;2023-04-24T21:24:08;95117.00;;;10.60
54746;BMP180;40640;48.130;11.356;2023-04-24T21:28:11;95116.00;;;10.50
54746;BMP180;40640;48.130;11.356;2023-04-24T21:32:15;95117.00;;;10.50
54746;BMP180;40640;48.130;11.356;2023-04-24T21:36:18;95112.00;;;10.80
54746;BMP180;40640;48.130;11.356;2023-04-24T21:40:21;95111.00;;;10.60
54746;BMP180;40640;48.130;11.356;2023-04-24T21:44:24;95100.00;;;10.40
54746;BMP180;40640;48.130;11.356;2023-04-24T21:48:28;95105.00;;;10.60
54746;BMP180;40640;48.130;11.356;2023-04-24T21:52:31;95107.00;;;10.70
54746;BMP180;40640;48.130;11.356;2023-04-24T21:56:34;95095.00;;;10.70
54746;BMP180;40640;48.130;11.356;2023-04-24T22:00:37;95094.00;;;10.50
54746;BMP180;40640;48.130;11.356;2023-04-24T22:04:41;95078.00;;;10.60
54746;BMP180;40640;48.130;11.356;2023-04-24T22:08:44;95091.00;;;10.80
54746;BMP180;40640;48.130;11.356;2023-04-24T22:12:48;95094.00;;;10.60
54746;BMP180;40640;48.130;11.356;2023-04-24T22:16:51;95082.00;;;10.60
54746;BMP180;40640;48.130;11.356;2023-04-24T22:20:55;95092.00;;;10.60
54746;BMP180;40640;48.130;11.356;2023-04-24T22:24:59;95080.00;;;10.60
54746;BMP180;40640;48.130;11.356;2023-04-24T22:29:01;95069.00;;;10.60
54746;BMP180;40640;48.130;11.356;2023-04-24T22:33:04;95070.00;;;10.50
54746;BMP180;40640;48.130;11.356;2023-04-24T22:37:09;95058.00;;;10.60
54746;BMP180;40640;48.130;11.356;2023-04-24T22:41:12;95058.00;;;10.60
54746;BMP180;40640;48.130;11.356;2023-04-24T22:45:15;95055.00;;;10.40
54746;BMP180;40640;48.130;11.356;2023-04-24T22:49:18;95054.00;;;10.40
54746;BMP180;40640;48.130;11.356;2023-04-24T22:53:23;95045.00;;;10.30
54746;BMP180;40640;48.130;11.356;2023-04-24T22:57:26;95053.00;;;10.30
54746;BMP180;40640;48.130;11.356;2023-04-24T23:01:30;95047.00;;;10.40
54746;BMP180;40640;48.130;11.356;2023-04-24T23:10:06;95034.00;;;10.20